createdAt,value
2023-02-16T00:00:19.550Z,2.64
2023-02-16T00:03:16.205Z,2.64
2023-02-16T00:05:44.645Z,2.65
2023-02-16T00:08:13.015Z,2.63
2023-02-16T00:10:41.454Z,2.63
2023-02-16T00:13:44.361Z,2.61
2023-02-16T00:16:21.370Z,2.57
2023-02-16T00:18:50.426Z,2.55
2023-02-16T00:21:19.085Z,2.52
2023-02-16T00:23:48.733Z,2.49
2023-02-16T00:26:25.739Z,2.46
2023-02-16T00:28:55.917Z,2.46
2023-02-16T00:31:29.181Z,2.45
2023-02-16T00:33:58.021Z,2.47
2023-02-16T00:36:26.293Z,2.47
2023-02-16T00:38:54.198Z,2.45
2023-02-16T00:41:42.867Z,2.44
2023-02-16T00:44:27.620Z,2.42
2023-02-16T00:46:57.116Z,2.39
2023-02-16T00:49:24.874Z,2.38
2023-02-16T00:51:52.713Z,2.38
2023-02-16T00:54:20.531Z,2.38
2023-02-16T00:56:48.302Z,2.38
2023-02-16T00:59:21.118Z,2.39
2023-02-16T01:01:50.248Z,2.41
2023-02-16T01:04:22.717Z,2.44
2023-02-16T01:07:09.885Z,2.46
2023-02-16T01:09:56.843Z,2.45
2023-02-16T01:12:25.507Z,2.43
2023-02-16T01:14:55.264Z,2.42
2023-02-16T01:17:24.295Z,2.41
2023-02-16T01:19:52.420Z,2.39
2023-02-16T01:22:20.725Z,2.38
2023-02-16T01:24:48.969Z,2.39
2023-02-16T01:27:16.828Z,2.38
2023-02-16T01:29:44.666Z,2.36
2023-02-16T01:32:12.899Z,2.35
2023-02-16T01:34:40.918Z,2.32
2023-02-16T01:37:16.238Z,2.29
2023-02-16T01:39:44.917Z,2.27
2023-02-16T01:42:33.636Z,2.24
2023-02-16T01:45:32.452Z,2.24
2023-02-16T01:48:07.074Z,2.24
2023-02-16T01:50:52.725Z,2.22
2023-02-16T01:53:30.926Z,2.23
2023-02-16T01:56:03.612Z,2.24
2023-02-16T01:58:48.334Z,2.24
2023-02-16T02:01:41.972Z,2.24
2023-02-16T02:04:54.190Z,2.23
2023-02-16T02:07:57.245Z,2.25
2023-02-16T02:10:31.698Z,2.26
2023-02-16T02:13:04.151Z,2.27
2023-02-16T02:15:34.016Z,2.28
2023-02-16T02:18:02.192Z,2.27
2023-02-16T02:21:27.915Z,2.25
2023-02-16T02:24:02.564Z,2.27
2023-02-16T02:26:51.941Z,2.25
2023-02-16T02:29:36.016Z,2.23
2023-02-16T02:32:34.978Z,2.20
2023-02-16T02:35:21.074Z,2.17
2023-02-16T02:37:54.827Z,2.16
2023-02-16T02:40:28.645Z,2.14
2023-02-16T02:43:33.208Z,2.13
2023-02-16T02:46:09.805Z,2.10
2023-02-16T02:48:38.152Z,2.10
2023-02-16T02:51:27.258Z,2.11
2023-02-16T02:54:18.349Z,2.10
2023-02-16T02:57:16.807Z,2.07
2023-02-16T03:00:19.085Z,2.06
2023-02-16T03:02:50.998Z,2.03
2023-02-16T03:05:23.198Z,2.01
2023-02-16T03:07:57.396Z,1.98
2023-02-16T03:10:47.391Z,1.96
2023-02-16T03:13:21.073Z,1.94
2023-02-16T03:15:49.892Z,1.94
2023-02-16T03:18:36.758Z,1.93
2023-02-16T03:21:24.607Z,1.91
2023-02-16T03:24:12.950Z,1.88
2023-02-16T03:26:59.773Z,1.85
2023-02-16T03:29:28.709Z,1.83
2023-02-16T03:31:57.766Z,1.81
2023-02-16T03:34:26.611Z,1.80
2023-02-16T03:36:59.051Z,1.79
2023-02-16T03:39:29.170Z,1.80
2023-02-16T03:41:58.429Z,1.80
2023-02-16T03:44:27.029Z,1.81
2023-02-16T03:46:54.907Z,1.81
2023-02-16T03:49:22.643Z,1.79
2023-02-16T03:51:50.401Z,1.81
2023-02-16T03:54:18.402Z,1.82
2023-02-16T03:56:46.632Z,1.81
2023-02-16T03:59:15.131Z,1.81
2023-02-16T04:01:42.990Z,1.81
2023-02-16T04:04:10.909Z,1.81
2023-02-16T04:06:38.693Z,1.80
2023-02-16T04:09:06.750Z,1.80
2023-02-16T04:11:53.285Z,1.80
2023-02-16T04:14:21.244Z,1.76
2023-02-16T04:16:49.079Z,1.73
2023-02-16T04:19:16.859Z,1.71
2023-02-16T04:21:44.637Z,1.70
2023-02-16T04:24:12.489Z,1.69
2023-02-16T04:26:40.251Z,1.69
2023-02-16T04:29:08.043Z,1.66
2023-02-16T04:31:35.875Z,1.64
2023-02-16T04:34:03.977Z,1.62
2023-02-16T04:36:31.820Z,1.60
2023-02-16T04:38:59.577Z,1.58
2023-02-16T04:41:27.342Z,1.57
2023-02-16T04:43:55.154Z,1.57
2023-02-16T04:46:23.022Z,1.55
2023-02-16T04:48:50.888Z,1.53
2023-02-16T04:51:18.715Z,1.52
2023-02-16T04:53:46.483Z,1.53
2023-02-16T04:56:14.723Z,1.52
2023-02-16T04:58:42.956Z,1.52
2023-02-16T05:01:23.113Z,1.51
2023-02-16T05:03:51.634Z,1.48
2023-02-16T05:06:19.414Z,1.46
2023-02-16T05:08:47.807Z,1.44
2023-02-16T05:11:39.367Z,1.42
2023-02-16T05:14:26.101Z,1.42
2023-02-16T05:16:54.300Z,1.42
2023-02-16T05:19:22.095Z,1.41
2023-02-16T05:21:49.876Z,1.40
2023-02-16T05:24:18.137Z,1.40
2023-02-16T05:26:46.349Z,1.40
2023-02-16T05:29:14.141Z,1.39
2023-02-16T05:31:41.948Z,1.39
2023-02-16T05:34:09.715Z,1.41
2023-02-16T05:36:37.663Z,1.41
2023-02-16T05:39:05.914Z,1.39
2023-02-16T05:41:34.262Z,1.39
2023-02-16T05:44:03.986Z,1.37
2023-02-16T05:46:35.673Z,1.37
2023-02-16T05:49:05.319Z,1.37
2023-02-16T05:51:33.874Z,1.39
2023-02-16T05:54:01.644Z,1.39
2023-02-16T05:56:30.233Z,1.40
2023-02-16T05:59:01.120Z,1.42
2023-02-16T06:01:29.714Z,1.43
2023-02-16T06:03:57.492Z,1.44
2023-02-16T06:06:25.775Z,1.46
2023-02-16T06:08:54.253Z,1.48
2023-02-16T06:11:36.971Z,1.49
2023-02-16T06:14:09.219Z,1.51
2023-02-16T06:16:39.794Z,1.55
2023-02-16T06:19:09.415Z,1.56
2023-02-16T06:21:38.343Z,1.57
2023-02-16T06:24:08.059Z,1.59
2023-02-16T06:26:36.049Z,1.62
2023-02-16T06:29:04.922Z,1.67
2023-02-16T06:31:36.119Z,1.72
2023-02-16T06:34:04.965Z,1.75
2023-02-16T06:36:34.333Z,1.77
2023-02-16T06:39:02.300Z,1.80
2023-02-16T06:41:40.369Z,1.82
2023-02-16T06:44:14.448Z,1.85
2023-02-16T06:46:45.706Z,1.89
2023-02-16T06:49:18.070Z,1.94
2023-02-16T06:51:47.400Z,1.97
2023-02-16T06:54:16.142Z,2.00
2023-02-16T06:56:44.732Z,2.05
2023-02-16T06:59:13.367Z,2.09
2023-02-16T07:01:42.921Z,2.14
2023-02-16T07:04:11.914Z,2.17
2023-02-16T07:06:40.170Z,2.22
2023-02-16T07:09:10.608Z,2.27
2023-02-16T07:11:39.712Z,2.33
2023-02-16T07:14:07.833Z,2.38
2023-02-16T07:16:35.632Z,2.44
2023-02-16T07:19:03.689Z,2.49
2023-02-16T07:21:31.557Z,2.55
2023-02-16T07:23:59.893Z,2.61
2023-02-16T07:26:27.761Z,2.67
2023-02-16T07:28:55.774Z,2.74
2023-02-16T07:31:26.500Z,2.81
2023-02-16T07:33:54.367Z,2.86
2023-02-16T07:36:22.165Z,2.94
2023-02-16T07:38:50.078Z,2.99
2023-02-16T07:41:18.352Z,3.06
2023-02-16T07:43:47.002Z,3.12
2023-02-16T07:46:14.795Z,3.17
2023-02-16T07:48:42.664Z,3.22
2023-02-16T07:51:10.463Z,3.29
2023-02-16T07:53:38.244Z,3.33
2023-02-16T07:56:06.692Z,3.39
2023-02-16T07:58:34.456Z,3.46
2023-02-16T08:01:09.828Z,3.51
2023-02-16T08:03:39.147Z,3.56
2023-02-16T08:06:08.775Z,3.60
2023-02-16T08:08:38.265Z,3.64
2023-02-16T08:11:16.064Z,3.67
2023-02-16T08:13:44.370Z,3.70
2023-02-16T08:16:15.406Z,3.73
2023-02-16T08:18:43.254Z,3.77
2023-02-16T08:21:19.445Z,3.79
2023-02-16T08:23:54.168Z,3.82
2023-02-16T08:26:23.910Z,3.81
2023-02-16T08:28:52.831Z,3.82
2023-02-16T08:31:25.138Z,3.81
2023-02-16T08:33:57.006Z,3.80
2023-02-16T08:36:29.742Z,3.80
2023-02-16T08:38:57.630Z,3.81
2023-02-16T08:41:31.127Z,3.84
2023-02-16T08:44:00.928Z,3.88
2023-02-16T08:46:30.524Z,3.93
2023-02-16T08:49:00.200Z,3.99
2023-02-16T08:51:31.392Z,4.04
2023-02-16T08:54:00.327Z,4.09
2023-02-16T08:56:33.012Z,4.14
2023-02-16T08:59:01.825Z,4.20
2023-02-16T09:01:29.633Z,4.25
2023-02-16T09:03:57.690Z,4.30
2023-02-16T09:06:25.836Z,4.35
2023-02-16T09:08:55.814Z,4.40
2023-02-16T09:11:25.628Z,4.43
2023-02-16T09:13:53.389Z,4.45
2023-02-16T09:16:23.726Z,4.47
2023-02-16T09:18:53.204Z,4.53
2023-02-16T09:21:25.984Z,4.56
2023-02-16T09:23:56.536Z,4.59
2023-02-16T09:26:26.938Z,4.63
2023-02-16T09:28:55.085Z,4.68
2023-02-16T09:31:27.478Z,4.72
2023-02-16T09:33:57.637Z,4.76
2023-02-16T09:36:25.888Z,4.81
2023-02-16T09:38:56.253Z,4.88
2023-02-16T09:41:48.562Z,4.93
2023-02-16T09:44:25.829Z,4.99
2023-02-16T09:46:57.404Z,5.05
2023-02-16T09:49:35.140Z,5.07
2023-02-16T09:52:10.018Z,5.10
2023-02-16T09:54:57.958Z,5.12
2023-02-16T09:57:31.763Z,5.17
2023-02-16T10:00:16.485Z,5.22
2023-02-16T10:02:54.389Z,5.28
2023-02-16T10:05:36.430Z,5.30
2023-02-16T10:08:16.734Z,5.31
2023-02-16T10:10:49.139Z,5.35
2023-02-16T10:13:32.099Z,5.40
2023-02-16T10:16:03.151Z,5.43
2023-02-16T10:18:49.480Z,5.47
2023-02-16T10:21:27.629Z,5.49
2023-02-16T10:24:01.140Z,5.53
2023-02-16T10:26:40.720Z,5.55
2023-02-16T10:29:15.881Z,5.56
2023-02-16T10:31:48.497Z,5.60
2023-02-16T10:34:21.351Z,5.65
2023-02-16T10:37:02.755Z,5.71
2023-02-16T10:39:43.452Z,5.77
2023-02-16T10:42:51.675Z,5.81
2023-02-16T10:45:56.492Z,5.89
2023-02-16T10:48:24.636Z,5.98
2023-02-16T10:51:02.396Z,6.00
2023-02-16T10:53:47.207Z,6.03
2023-02-16T10:56:30.551Z,6.07
2023-02-16T10:59:01.740Z,6.14
2023-02-16T11:01:43.676Z,6.21
2023-02-16T11:04:31.301Z,6.25
2023-02-16T11:07:16.109Z,6.29
2023-02-16T11:09:46.242Z,6.33
2023-02-16T11:12:23.665Z,6.36
2023-02-16T11:14:55.160Z,6.38
2023-02-16T11:17:24.071Z,6.42
2023-02-16T11:20:02.267Z,6.46
2023-02-16T11:22:37.551Z,6.50
2023-02-16T11:25:23.505Z,6.55
2023-02-16T11:27:56.124Z,6.60
2023-02-16T11:30:43.244Z,6.65
2023-02-16T11:33:23.601Z,6.70
2023-02-16T11:35:52.223Z,6.75
2023-02-16T11:38:36.056Z,6.81
2023-02-16T11:41:07.101Z,6.84
2023-02-16T11:43:37.761Z,6.86
2023-02-16T11:46:16.763Z,6.88
2023-02-16T11:48:45.641Z,6.91
2023-02-16T11:51:15.735Z,6.91
2023-02-16T11:53:46.156Z,6.92
2023-02-16T11:56:29.569Z,6.93
2023-02-16T11:59:22.105Z,6.97
2023-02-16T12:02:27.693Z,7.00
2023-02-16T12:05:08.417Z,7.02
2023-02-16T12:07:41.121Z,7.03
2023-02-16T12:10:28.246Z,7.07
2023-02-16T12:13:13.872Z,7.09
2023-02-16T12:16:16.642Z,7.10
2023-02-16T12:19:03.127Z,7.09
2023-02-16T12:21:53.848Z,7.09
2023-02-16T12:24:42.136Z,7.10
2023-02-16T12:27:24.873Z,7.12
2023-02-16T12:29:59.381Z,7.12
2023-02-16T12:32:48.275Z,7.12
2023-02-16T12:35:33.572Z,7.14
2023-02-16T12:38:07.724Z,7.15
2023-02-16T12:40:35.764Z,7.13
2023-02-16T12:43:36.434Z,7.16
2023-02-16T12:46:28.215Z,7.18
2023-02-16T12:49:03.073Z,7.22
2023-02-16T12:51:37.082Z,7.25
2023-02-16T12:54:15.309Z,7.30
2023-02-16T12:56:48.380Z,7.34
2023-02-16T12:59:22.132Z,7.36
2023-02-16T13:01:54.886Z,7.38
2023-02-16T13:05:01.213Z,7.39
2023-02-16T13:07:38.890Z,7.39
2023-02-16T13:10:25.622Z,7.39
2023-02-16T13:13:12.690Z,7.39
2023-02-16T13:15:48.374Z,7.38
2023-02-16T13:18:21.542Z,7.33
2023-02-16T13:21:00.190Z,7.33
2023-02-16T13:23:43.490Z,7.31
2023-02-16T13:26:24.095Z,7.28
2023-02-16T13:29:08.192Z,7.24
2023-02-16T13:31:48.659Z,7.23
2023-02-16T13:34:46.711Z,7.22
2023-02-16T13:37:31.144Z,7.21
2023-02-16T13:40:11.106Z,7.17
2023-02-16T13:42:52.254Z,7.13
2023-02-16T13:45:24.254Z,7.09
2023-02-16T13:47:55.237Z,7.08
2023-02-16T13:50:33.474Z,7.07
2023-02-16T13:53:36.437Z,7.05
2023-02-16T13:56:23.845Z,6.97
2023-02-16T13:58:58.218Z,6.93
2023-02-16T14:01:34.360Z,6.89
2023-02-16T14:04:03.006Z,6.85
2023-02-16T14:06:37.909Z,6.80
2023-02-16T14:09:21.577Z,6.74
2023-02-16T14:11:53.999Z,6.69
2023-02-16T14:14:31.518Z,6.65
2023-02-16T14:17:33.130Z,6.62
2023-02-16T14:20:13.591Z,6.58
2023-02-16T14:23:00.407Z,6.54
2023-02-16T14:25:29.164Z,6.50
2023-02-16T14:27:56.888Z,6.46
2023-02-16T14:30:28.023Z,6.42
2023-02-16T14:33:04.677Z,6.38
2023-02-16T14:35:38.579Z,6.31
2023-02-16T14:38:17.172Z,6.27
2023-02-16T14:40:52.770Z,6.20
2023-02-16T14:43:28.278Z,6.12
2023-02-16T14:46:23.752Z,6.05
2023-02-16T14:48:57.662Z,5.96
2023-02-16T14:52:00.821Z,5.90
2023-02-16T14:54:47.986Z,5.80
2023-02-16T14:57:44.795Z,5.71
2023-02-16T15:00:19.946Z,5.64
2023-02-16T15:03:04.523Z,5.58
2023-02-16T15:05:35.782Z,5.51
2023-02-16T15:08:12.682Z,5.46
2023-02-16T15:10:40.672Z,5.38
2023-02-16T15:13:08.569Z,5.32
2023-02-16T15:15:50.128Z,5.28
2023-02-16T15:18:22.000Z,5.20
2023-02-16T15:20:53.693Z,5.13
2023-02-16T15:23:31.113Z,5.07
2023-02-16T15:26:01.223Z,5.00
2023-02-16T15:28:32.635Z,4.94
2023-02-16T15:31:05.883Z,4.86
2023-02-16T15:33:42.435Z,4.79
2023-02-16T15:36:18.736Z,4.71
2023-02-16T15:38:52.499Z,4.63
2023-02-16T15:41:32.264Z,4.58
2023-02-16T15:44:02.606Z,4.53
2023-02-16T15:46:37.122Z,4.45
2023-02-16T15:49:30.414Z,4.38
2023-02-16T15:51:59.802Z,4.32
2023-02-16T15:54:35.652Z,4.25
2023-02-16T15:57:31.338Z,4.18
2023-02-16T16:00:03.558Z,4.12
2023-02-16T16:02:44.057Z,4.06
2023-02-16T16:05:25.428Z,4.01
2023-02-16T16:07:55.825Z,3.97
2023-02-16T16:10:32.669Z,3.92
2023-02-16T16:13:04.155Z,3.87
2023-02-16T16:15:37.397Z,3.82
2023-02-16T16:18:06.830Z,3.79
2023-02-16T16:20:42.119Z,3.74
2023-02-16T16:23:15.874Z,3.70
2023-02-16T16:25:46.595Z,3.68
2023-02-16T16:28:36.014Z,3.65
2023-02-16T16:31:22.659Z,3.60
2023-02-16T16:33:55.504Z,3.57
2023-02-16T16:36:32.347Z,3.56
2023-02-16T16:39:17.242Z,3.52
2023-02-16T16:42:01.493Z,3.49
2023-02-16T16:44:38.740Z,3.47
2023-02-16T16:47:25.955Z,3.44
2023-02-16T16:50:02.378Z,3.43
2023-02-16T16:52:33.200Z,3.41
2023-02-16T16:55:01.447Z,3.40
2023-02-16T16:57:31.002Z,3.38
2023-02-16T16:59:58.914Z,3.35
2023-02-16T17:02:27.503Z,3.32
2023-02-16T17:04:55.314Z,3.30
2023-02-16T17:07:23.191Z,3.27
2023-02-16T17:09:50.980Z,3.25
2023-02-16T17:12:21.584Z,3.22
2023-02-16T17:14:49.322Z,3.19
2023-02-16T17:17:17.991Z,3.16
2023-02-16T17:19:45.884Z,3.12
2023-02-16T17:22:20.444Z,3.11
2023-02-16T17:24:48.714Z,3.10
2023-02-16T17:27:16.614Z,3.08
2023-02-16T17:29:46.684Z,3.04
2023-02-16T17:32:14.678Z,3.03
2023-02-16T17:34:42.767Z,3.01
2023-02-16T17:37:10.698Z,3.00
2023-02-16T17:39:39.411Z,2.98
2023-02-16T17:42:11.640Z,2.96
2023-02-16T17:44:40.129Z,2.96
2023-02-16T17:47:13.962Z,2.96
2023-02-16T17:49:41.826Z,2.96
2023-02-16T17:52:11.587Z,2.92
2023-02-16T17:54:39.642Z,2.92
2023-02-16T17:57:07.454Z,2.92
2023-02-16T17:59:36.351Z,2.90
2023-02-16T18:02:04.242Z,2.87
2023-02-16T18:04:32.169Z,2.85
2023-02-16T18:06:59.948Z,2.83
2023-02-16T18:09:27.745Z,2.84
2023-02-16T18:11:55.551Z,2.84
2023-02-16T18:14:23.864Z,2.82
2023-02-16T18:16:52.502Z,2.82
2023-02-16T18:19:20.509Z,2.81
2023-02-16T18:21:48.568Z,2.81
2023-02-16T18:24:17.079Z,2.80
2023-02-16T18:26:45.507Z,2.80
2023-02-16T18:29:14.140Z,2.79
2023-02-16T18:31:44.683Z,2.77
2023-02-16T18:34:12.791Z,2.75
2023-02-16T18:36:41.428Z,2.74
2023-02-16T18:39:10.226Z,2.73
2023-02-16T18:41:38.633Z,2.72
2023-02-16T18:44:06.840Z,2.73
2023-02-16T18:46:35.182Z,2.73
2023-02-16T18:49:03.327Z,2.73
2023-02-16T18:51:32.268Z,2.72
2023-02-16T18:54:00.748Z,2.70
2023-02-16T18:56:29.285Z,2.68
2023-02-16T18:58:57.335Z,2.68
2023-02-16T19:01:30.788Z,2.65
2023-02-16T19:03:59.780Z,2.64
2023-02-16T19:06:28.716Z,2.64
2023-02-16T19:08:59.309Z,2.63
2023-02-16T19:11:32.842Z,2.61
2023-02-16T19:14:00.801Z,2.58
2023-02-16T19:16:29.144Z,2.56
2023-02-16T19:18:56.969Z,2.55
2023-02-16T19:21:26.100Z,2.53
2023-02-16T19:23:54.863Z,2.53
2023-02-16T19:26:23.562Z,2.53
2023-02-16T19:28:53.047Z,2.50
2023-02-16T19:31:24.436Z,2.48
2023-02-16T19:33:53.660Z,2.46
2023-02-16T19:36:23.448Z,2.44
2023-02-16T19:38:53.384Z,2.44
2023-02-16T19:41:36.439Z,2.43
2023-02-16T19:44:05.786Z,2.41
2023-02-16T19:46:34.683Z,2.40
2023-02-16T19:49:02.850Z,2.39
2023-02-16T19:51:30.657Z,2.37
2023-02-16T19:53:59.779Z,2.37
2023-02-16T19:56:27.757Z,2.35
2023-02-16T19:58:58.914Z,2.33
2023-02-16T20:01:28.484Z,2.31
2023-02-16T20:03:57.456Z,2.29
2023-02-16T20:06:29.733Z,2.27
2023-02-16T20:09:00.245Z,2.25
2023-02-16T20:11:30.347Z,2.25
2023-02-16T20:13:58.786Z,2.25
2023-02-16T20:16:27.174Z,2.23
2023-02-16T20:18:55.481Z,2.23
2023-02-16T20:21:26.250Z,2.21
2023-02-16T20:23:58.127Z,2.19
2023-02-16T20:26:34.411Z,2.18
2023-02-16T20:29:04.571Z,2.17
2023-02-16T20:31:36.173Z,2.17
2023-02-16T20:34:05.736Z,2.15
2023-02-16T20:36:34.858Z,2.14
2023-02-16T20:39:04.774Z,2.14
2023-02-16T20:41:32.846Z,2.14
2023-02-16T20:44:02.915Z,2.15
2023-02-16T20:46:31.552Z,2.16
2023-02-16T20:49:00.124Z,2.17
2023-02-16T20:51:28.010Z,2.18
2023-02-16T20:53:55.984Z,2.18
2023-02-16T20:56:25.801Z,2.17
2023-02-16T20:58:55.709Z,2.15
2023-02-16T21:01:27.793Z,2.14
2023-02-16T21:03:57.461Z,2.13
2023-02-16T21:06:25.914Z,2.12
2023-02-16T21:08:54.418Z,2.11
2023-02-16T21:11:22.953Z,2.11
2023-02-16T21:13:51.903Z,2.10
2023-02-16T21:16:19.919Z,2.10
2023-02-16T21:18:48.274Z,2.09
2023-02-16T21:21:16.496Z,2.08
2023-02-16T21:23:48.237Z,2.09
2023-02-16T21:26:18.147Z,2.09
2023-02-16T21:28:46.994Z,2.08
2023-02-16T21:31:18.651Z,2.06
2023-02-16T21:33:46.889Z,2.06
2023-02-16T21:36:18.635Z,2.05
2023-02-16T21:38:47.621Z,2.03
2023-02-16T21:41:24.738Z,2.03
2023-02-16T21:43:59.060Z,2.01
2023-02-16T21:46:29.642Z,1.99
2023-02-16T21:48:58.014Z,1.98
2023-02-16T21:51:30.759Z,1.98
2023-02-16T21:53:59.684Z,1.96
2023-02-16T21:56:31.332Z,1.95
2023-02-16T21:58:59.521Z,1.95
2023-02-16T22:01:33.423Z,1.94
2023-02-16T22:04:07.874Z,1.94
2023-02-16T22:06:39.558Z,1.94
2023-02-16T22:09:11.844Z,1.94
2023-02-16T22:11:40.124Z,1.94
2023-02-16T22:14:11.973Z,1.94
2023-02-16T22:16:40.752Z,1.95
2023-02-16T22:19:12.749Z,1.96
2023-02-16T22:21:42.709Z,1.97
2023-02-16T22:24:13.866Z,1.97
2023-02-16T22:26:42.596Z,1.96
2023-02-16T22:29:12.941Z,1.96
2023-02-16T22:31:49.126Z,1.95
2023-02-16T22:34:20.038Z,1.94
2023-02-16T22:36:48.458Z,1.93
2023-02-16T22:39:18.156Z,1.92
2023-02-16T22:41:48.460Z,1.91
2023-02-16T22:44:16.306Z,1.90
2023-02-16T22:46:44.087Z,1.89
2023-02-16T22:49:12.378Z,1.88
2023-02-16T22:51:43.828Z,1.87
2023-02-16T22:54:14.487Z,1.88
2023-02-16T22:56:42.687Z,1.86
2023-02-16T22:59:11.527Z,1.83
2023-02-16T23:01:41.373Z,1.82
2023-02-16T23:04:15.264Z,1.80
2023-02-16T23:06:48.033Z,1.79
2023-02-16T23:09:19.815Z,1.79
2023-02-16T23:11:49.367Z,1.78
2023-02-16T23:14:19.365Z,1.77
2023-02-16T23:16:53.545Z,1.77
2023-02-16T23:19:24.309Z,1.76
2023-02-16T23:21:53.677Z,1.77
2023-02-16T23:24:23.045Z,1.77
2023-02-16T23:26:52.546Z,1.78
2023-02-16T23:29:20.740Z,1.78
2023-02-16T23:31:49.364Z,1.79
2023-02-16T23:34:17.918Z,1.79
2023-02-16T23:36:46.412Z,1.79
2023-02-16T23:39:17.363Z,1.78
2023-02-16T23:41:46.617Z,1.78
2023-02-16T23:44:14.957Z,1.79
2023-02-16T23:46:42.911Z,1.79
2023-02-16T23:49:10.796Z,1.80
2023-02-16T23:51:38.536Z,1.82
2023-02-16T23:54:06.318Z,1.82
2023-02-16T23:56:34.516Z,1.83
2023-02-16T23:59:02.688Z,1.84
